createdAt,value
2018-08-18T00:01:07.091Z,75.47
2018-08-18T00:03:38.436Z,75.88
2018-08-18T00:06:10.858Z,76.23
2018-08-18T00:08:41.016Z,76.86
2018-08-18T00:11:12.823Z,76.56
2018-08-18T00:13:56.010Z,77.73
2018-08-18T00:16:29.609Z,77.57
2018-08-18T00:19:01.677Z,76.40
2018-08-18T00:21:34.139Z,77.50
2018-08-18T00:24:12.553Z,77.70
2018-08-18T00:26:43.390Z,78.42
2018-08-18T00:29:16.085Z,77.84
2018-08-18T00:31:53.058Z,77.71
2018-08-18T00:34:25.484Z,75.96
2018-08-18T00:36:58.716Z,77.00
2018-08-18T00:39:32.461Z,76.21
2018-08-18T00:42:02.684Z,75.96
2018-08-18T00:44:36.300Z,77.09
2018-08-18T00:47:09.839Z,76.45
2018-08-18T00:49:42.166Z,76.81
2018-08-18T00:52:14.638Z,76.17
2018-08-18T00:54:54.908Z,77.41
2018-08-18T00:57:39.715Z,77.16
2018-08-18T01:00:13.015Z,77.77
2018-08-18T01:02:44.376Z,77.68
2018-08-18T01:08:07.214Z,77.58
2018-08-18T01:10:42.165Z,77.96
2018-08-18T01:15:53.028Z,76.73
2018-08-18T01:18:31.753Z,76.35
2018-08-18T01:21:05.142Z,76.90
2018-08-18T01:23:38.148Z,75.53
2018-08-18T01:26:11.874Z,74.40
2018-08-18T01:28:44.580Z,74.10
2018-08-18T01:31:35.137Z,73.42
2018-08-18T01:34:12.852Z,74.36
2018-08-18T01:36:44.769Z,74.16
2018-08-18T01:39:17.969Z,74.18
2018-08-18T01:45:06.571Z,74.31
2018-08-18T01:47:41.126Z,75.28
2018-08-18T01:50:18.347Z,74.97
2018-08-18T01:53:00.431Z,74.61
2018-08-18T01:55:39.580Z,73.84
2018-08-18T01:58:13.384Z,74.40
2018-08-18T02:00:44.352Z,74.83
2018-08-18T02:03:18.412Z,76.09
2018-08-18T02:05:50.709Z,74.17
2018-08-18T02:08:24.520Z,74.40
2018-08-18T02:10:56.620Z,74.82
2018-08-18T02:13:38.055Z,73.93
2018-08-18T02:16:14.922Z,73.92
2018-08-18T02:18:47.715Z,74.72
2018-08-18T02:24:18.078Z,74.59
2018-08-18T02:26:49.324Z,74.85
2018-08-18T02:29:20.082Z,75.00
2018-08-18T02:31:53.265Z,74.99
2018-08-18T02:34:26.648Z,75.26
2018-08-18T02:37:00.311Z,74.05
2018-08-18T02:39:31.559Z,75.18
2018-08-18T02:42:12.101Z,74.73
2018-08-18T02:44:49.818Z,75.62
2018-08-18T02:47:22.478Z,74.89
2018-08-18T02:49:58.964Z,75.59
2018-08-18T02:52:43.230Z,74.52
2018-08-18T02:55:21.246Z,74.81
2018-08-18T02:57:52.206Z,74.36
2018-08-18T03:00:29.580Z,75.36
2018-08-18T03:03:06.055Z,76.22
2018-08-18T03:05:48.118Z,76.70
2018-08-18T03:08:20.820Z,77.48
2018-08-18T03:10:52.608Z,76.68
2018-08-18T03:13:26.123Z,76.50
2018-08-18T03:16:02.319Z,76.78
2018-08-18T03:19:00.539Z,77.43
2018-08-18T03:21:36.461Z,77.50
2018-08-18T03:24:25.096Z,78.45
2018-08-18T03:27:01.806Z,77.22
2018-08-18T03:29:42.260Z,78.92
2018-08-18T03:32:14.930Z,79.19
2018-08-18T03:34:50.380Z,79.94
2018-08-18T03:37:32.868Z,79.02
2018-08-18T03:40:05.260Z,78.98
2018-08-18T03:42:45.424Z,79.73
2018-08-18T03:45:15.813Z,80.25
2018-08-18T03:47:45.995Z,80.33
2018-08-18T03:50:20.669Z,80.07
2018-08-18T03:52:51.128Z,80.16
2018-08-18T03:55:37.171Z,80.93
2018-08-18T03:58:08.222Z,80.89
2018-08-18T04:00:39.777Z,81.36
2018-08-18T04:03:09.895Z,81.47
2018-08-18T04:05:40.596Z,81.39
2018-08-18T04:08:10.705Z,81.51
2018-08-18T04:10:40.732Z,81.55
2018-08-18T04:13:15.085Z,82.95
2018-08-18T04:15:47.572Z,81.81
2018-08-18T04:18:20.223Z,81.24
2018-08-18T04:20:51.642Z,81.18
2018-08-18T04:23:25.777Z,80.75
2018-08-18T04:25:57.512Z,81.81
2018-08-18T04:28:31.654Z,81.18
2018-08-18T04:31:02.932Z,82.24
2018-08-18T04:33:35.504Z,81.65
2018-08-18T04:36:05.622Z,82.02
2018-08-18T04:38:39.370Z,82.67
2018-08-18T04:41:09.894Z,82.41
2018-08-18T04:43:41.291Z,82.57
2018-08-18T04:46:12.191Z,82.01
2018-08-18T04:48:45.677Z,81.88
2018-08-18T04:51:17.034Z,80.48
2018-08-18T04:53:48.413Z,81.58
2018-08-18T04:56:20.428Z,80.95
2018-08-18T04:58:50.420Z,81.53
2018-08-18T05:01:20.908Z,80.08
2018-08-18T05:04:04.503Z,80.13
2018-08-18T05:06:35.385Z,81.46
2018-08-18T05:09:09.237Z,81.26
2018-08-18T05:11:41.909Z,81.00
2018-08-18T05:14:12.093Z,81.46
2018-08-18T05:16:45.588Z,79.96
2018-08-18T05:19:15.802Z,80.96
2018-08-18T05:21:55.604Z,81.10
2018-08-18T05:24:31.203Z,81.45
2018-08-18T05:27:22.873Z,80.83
2018-08-18T05:29:57.912Z,80.85
2018-08-18T05:32:29.463Z,80.55
2018-08-18T05:35:03.216Z,80.51
2018-08-18T05:37:33.388Z,81.26
2018-08-18T05:40:05.669Z,80.43
2018-08-18T05:42:39.773Z,80.12
2018-08-18T05:45:27.916Z,79.87
2018-08-18T05:47:58.962Z,78.60
2018-08-18T05:50:36.693Z,79.21
2018-08-18T05:53:23.816Z,78.53
2018-08-18T05:55:56.696Z,78.58
2018-08-18T05:58:28.302Z,79.11
2018-08-18T06:01:02.567Z,78.32
2018-08-18T06:03:32.992Z,78.94
2018-08-18T06:06:03.113Z,78.64
2018-08-18T06:08:36.051Z,78.38
2018-08-18T06:11:06.682Z,78.66
2018-08-18T06:13:40.899Z,77.91
2018-08-18T06:16:13.654Z,77.60
2018-08-18T06:18:47.995Z,77.01
2018-08-18T06:21:19.056Z,76.59
2018-08-18T06:23:51.040Z,76.63
2018-08-18T06:26:22.406Z,76.16
2018-08-18T06:28:56.154Z,75.92
2018-08-18T06:31:27.318Z,75.76
2018-08-18T06:36:40.686Z,75.58
2018-08-18T06:39:11.444Z,74.24
2018-08-18T06:41:41.793Z,73.91
2018-08-18T06:44:12.364Z,73.65
2018-08-18T06:46:42.369Z,73.67
2018-08-18T06:49:13.384Z,73.11
2018-08-18T06:51:46.201Z,73.06
2018-08-18T06:54:18.754Z,72.21
2018-08-18T06:56:51.683Z,71.54
2018-08-18T06:59:23.983Z,72.45
2018-08-18T07:01:54.476Z,71.67
2018-08-18T07:04:28.784Z,71.62
2018-08-18T07:09:13.236Z,70.18
2018-08-18T07:11:43.765Z,68.14
2018-08-18T07:14:16.411Z,67.21
2018-08-18T07:16:48.621Z,66.29
2018-08-18T07:19:19.971Z,65.20
2018-08-18T07:21:53.457Z,64.63
2018-08-18T07:24:24.197Z,64.20
2018-08-18T07:26:55.754Z,63.73
2018-08-18T07:29:28.466Z,63.04
2018-08-18T07:31:59.104Z,63.57
2018-08-18T07:34:29.199Z,62.87
2018-08-18T07:36:59.400Z,62.27
2018-08-18T07:39:30.737Z,62.66
2018-08-18T07:42:02.240Z,63.36
2018-08-18T07:44:33.032Z,62.17
2018-08-18T07:47:11.206Z,62.38
2018-08-18T07:49:43.873Z,61.30
2018-08-18T07:52:15.492Z,62.13
2018-08-18T07:54:46.291Z,60.85
2018-08-18T07:57:16.906Z,60.14
2018-08-18T08:00:03.994Z,59.78
2018-08-18T08:02:34.909Z,60.16
2018-08-18T08:05:06.871Z,60.65
2018-08-18T08:07:37.075Z,59.30
2018-08-18T08:10:08.993Z,57.54
2018-08-18T08:12:39.233Z,57.94
2018-08-18T08:15:12.955Z,57.42
2018-08-18T08:17:45.224Z,57.33
2018-08-18T08:20:18.774Z,56.66
2018-08-18T08:22:50.480Z,57.97
2018-08-18T08:25:20.538Z,57.81
2018-08-18T08:27:53.077Z,58.69
2018-08-18T08:30:25.794Z,57.42
2018-08-18T08:32:56.686Z,56.69
2018-08-18T08:35:27.428Z,56.46
2018-08-18T08:38:00.210Z,57.43
2018-08-18T08:40:31.869Z,57.53
2018-08-18T08:46:00.149Z,58.64
2018-08-18T08:48:32.270Z,58.48
2018-08-18T08:51:05.152Z,57.59
2018-08-18T08:53:37.119Z,56.90
2018-08-18T08:56:11.425Z,55.92
2018-08-18T08:58:45.586Z,55.73
2018-08-18T09:01:17.667Z,57.08
2018-08-18T09:03:50.887Z,57.45
2018-08-18T09:06:22.502Z,56.35
2018-08-18T09:08:57.681Z,57.29
2018-08-18T09:11:31.460Z,57.45
2018-08-18T09:14:09.549Z,57.47
2018-08-18T09:16:40.970Z,57.02
2018-08-18T09:19:13.320Z,56.09
2018-08-18T09:21:49.019Z,55.37
2018-08-18T09:24:20.661Z,55.60
2018-08-18T09:26:53.732Z,55.11
2018-08-18T09:29:27.088Z,53.41
2018-08-18T09:32:00.716Z,52.97
2018-08-18T09:34:56.342Z,53.59
2018-08-18T09:37:28.233Z,53.49
2018-08-18T09:39:59.558Z,52.32
2018-08-18T09:42:30.456Z,51.57
2018-08-18T09:45:02.496Z,51.12
2018-08-18T09:47:34.524Z,51.97
2018-08-18T09:50:05.928Z,52.04
2018-08-18T09:52:36.703Z,51.62
2018-08-18T09:55:07.800Z,52.09
2018-08-18T09:57:42.608Z,51.56
2018-08-18T10:03:01.148Z,51.03
2018-08-18T10:05:31.670Z,50.49
2018-08-18T10:08:07.433Z,49.11
2018-08-18T10:10:43.980Z,49.64
2018-08-18T10:13:16.467Z,48.36
2018-08-18T10:15:48.446Z,47.24
2018-08-18T10:18:22.448Z,47.54
2018-08-18T10:20:53.636Z,48.05
2018-08-18T10:23:24.982Z,48.40
2018-08-18T10:25:55.957Z,48.30
2018-08-18T10:28:27.258Z,46.99
2018-08-18T10:31:03.772Z,48.55
2018-08-18T10:33:39.484Z,48.63
2018-08-18T10:36:11.764Z,49.29
2018-08-18T10:38:42.595Z,50.15
2018-08-18T10:41:13.979Z,51.10
2018-08-18T10:43:46.464Z,51.51
2018-08-18T10:46:20.731Z,51.25
2018-08-18T10:48:51.385Z,50.56
2018-08-18T10:51:39.577Z,50.00
2018-08-18T10:54:10.153Z,48.38
2018-08-18T10:56:40.521Z,46.39
2018-08-18T10:59:18.138Z,46.72
2018-08-18T11:02:03.984Z,47.41
2018-08-18T11:04:35.929Z,46.23
2018-08-18T11:07:06.958Z,45.25
2018-08-18T11:09:39.796Z,45.04
2018-08-18T11:12:10.068Z,45.26
2018-08-18T11:14:44.133Z,45.22
2018-08-18T12:09:51.085Z,43.72
2018-08-18T12:12:23.245Z,43.40
2018-08-18T12:14:54.434Z,42.75
2018-08-18T12:17:25.373Z,43.14
2018-08-18T12:20:00.944Z,42.17
2018-08-18T12:22:32.734Z,42.98
2018-08-18T12:27:36.495Z,42.83
2018-08-18T12:30:12.388Z,43.11
2018-08-18T12:32:45.535Z,43.18
2018-08-18T12:35:16.707Z,43.44
2018-08-18T12:37:49.377Z,44.37
2018-08-18T12:40:20.500Z,44.23
2018-08-18T12:42:51.409Z,45.17
2018-08-18T12:45:22.109Z,45.24
2018-08-18T12:48:01.919Z,44.26
2018-08-18T12:50:34.952Z,44.62
2018-08-18T12:53:09.933Z,44.42
2018-08-18T12:55:47.382Z,44.99
2018-08-18T12:58:18.704Z,44.41
2018-08-18T13:00:59.773Z,44.38
2018-08-18T13:06:16.113Z,44.00
2018-08-18T13:08:47.449Z,44.55
2018-08-18T13:11:20.273Z,43.27
2018-08-18T13:13:56.906Z,44.49
2018-08-18T13:16:30.690Z,44.94
2018-08-18T13:19:01.344Z,45.26
2018-08-18T13:21:32.163Z,44.67
2018-08-18T13:24:04.067Z,45.48
2018-08-18T13:26:39.369Z,44.69
2018-08-18T13:29:13.938Z,45.43
2018-08-18T13:31:47.488Z,44.96
2018-08-18T13:34:19.593Z,45.16
2018-08-18T13:36:50.940Z,44.77
2018-08-18T13:39:21.925Z,44.44
2018-08-18T13:41:52.368Z,44.31
2018-08-18T13:44:31.707Z,44.70
2018-08-18T13:47:06.076Z,44.82
2018-08-18T13:49:36.998Z,45.36
2018-08-18T13:52:12.842Z,45.65
2018-08-18T13:54:46.141Z,45.71
2018-08-18T13:57:21.617Z,45.62
2018-08-18T13:59:51.841Z,46.27
2018-08-18T14:02:22.566Z,45.91
2018-08-18T14:04:53.758Z,45.74
2018-08-18T14:07:24.991Z,46.14
2018-08-18T14:09:59.565Z,46.48
2018-08-18T14:12:31.720Z,45.96
2018-08-18T14:15:09.012Z,46.27
2018-08-18T14:17:40.044Z,46.76
2018-08-18T14:20:10.014Z,46.48
2018-08-18T14:22:40.649Z,46.95
2018-08-18T14:27:56.555Z,47.20
2018-08-18T14:30:26.689Z,47.45
2018-08-18T14:32:57.236Z,47.46
2018-08-18T14:35:29.729Z,48.29
2018-08-18T14:38:00.419Z,48.57
2018-08-18T14:40:33.755Z,48.64
2018-08-18T14:43:05.121Z,48.41
2018-08-18T14:45:35.786Z,48.09
2018-08-18T14:48:08.353Z,48.42
2018-08-18T14:50:38.652Z,48.39
2018-08-18T14:53:18.985Z,48.62
2018-08-18T14:55:52.355Z,49.85
2018-08-18T14:58:27.545Z,50.76
2018-08-18T15:01:03.236Z,50.70
2018-08-18T15:03:34.496Z,51.08
2018-08-18T15:06:05.430Z,50.53
2018-08-18T15:08:36.346Z,51.84
2018-08-18T15:11:08.712Z,52.19
2018-08-18T15:13:39.973Z,51.46
2018-08-18T15:16:10.688Z,51.24
2018-08-18T15:18:40.919Z,51.60
2018-08-18T15:21:13.648Z,52.23
2018-08-18T15:23:47.201Z,51.82
2018-08-18T15:26:16.894Z,52.08
2018-08-18T15:28:47.362Z,51.44
2018-08-18T15:31:20.399Z,51.20
2018-08-18T15:33:51.867Z,52.45
2018-08-18T15:36:34.311Z,52.00
2018-08-18T15:39:05.806Z,52.25
2018-08-18T15:41:41.209Z,51.24
2018-08-18T15:44:15.026Z,51.51
2018-08-18T15:46:45.747Z,51.99
2018-08-18T15:49:19.459Z,51.54
2018-08-18T15:51:51.408Z,51.72
2018-08-18T15:54:25.133Z,52.19
2018-08-18T15:56:56.942Z,52.71
2018-08-18T15:59:30.121Z,51.68
2018-08-18T16:02:05.079Z,52.49
2018-08-18T16:04:38.544Z,53.00
2018-08-18T16:07:28.163Z,52.03
2018-08-18T16:10:03.868Z,51.88
2018-08-18T16:12:35.159Z,52.08
2018-08-18T16:15:10.289Z,53.17
2018-08-18T16:17:45.330Z,53.36
2018-08-18T16:22:59.369Z,53.13
2018-08-18T16:25:46.729Z,53.08
2018-08-18T16:28:24.073Z,52.51
2018-08-18T16:31:00.069Z,52.32
2018-08-18T16:33:32.210Z,52.76
2018-08-18T16:36:05.312Z,52.50
2018-08-18T16:38:39.814Z,53.58
2018-08-18T16:41:12.331Z,53.61
2018-08-18T16:43:45.589Z,53.51
2018-08-18T16:46:27.206Z,54.17
2018-08-18T16:49:02.079Z,54.36
2018-08-18T16:51:40.138Z,54.89
2018-08-18T16:54:26.377Z,55.16
2018-08-18T16:57:01.979Z,54.82
2018-08-18T16:59:40.430Z,55.01
2018-08-18T17:02:28.584Z,55.20
2018-08-18T17:07:48.659Z,55.88
2018-08-18T17:10:47.698Z,55.67
2018-08-18T17:13:24.831Z,55.77
2018-08-18T17:15:56.276Z,57.46
2018-08-18T17:18:33.287Z,57.88
2018-08-18T17:21:10.177Z,58.90
2018-08-18T17:23:45.915Z,58.44
2018-08-18T17:26:22.171Z,59.88
2018-08-18T17:28:53.016Z,59.77
2018-08-18T17:31:25.152Z,59.99
2018-08-18T17:33:56.943Z,61.10
2018-08-18T17:36:30.828Z,60.81
2018-08-18T17:39:05.404Z,61.67
2018-08-18T17:41:38.943Z,61.49
2018-08-18T17:44:17.808Z,62.58
2018-08-18T17:46:57.892Z,63.04
2018-08-18T17:49:29.431Z,63.45
2018-08-18T17:52:07.706Z,64.33
2018-08-18T17:54:41.333Z,64.64
2018-08-18T17:57:15.830Z,63.73
2018-08-18T17:59:46.860Z,64.57
2018-08-18T18:02:18.010Z,64.38
2018-08-18T18:04:59.337Z,64.98
2018-08-18T18:07:31.182Z,65.10
2018-08-18T18:10:02.335Z,64.46
2018-08-18T18:12:34.615Z,65.21
2018-08-18T18:15:42.993Z,64.88
2018-08-18T18:18:20.525Z,65.25
2018-08-18T18:20:55.247Z,65.98
2018-08-18T18:23:26.546Z,65.47
2018-08-18T18:25:59.756Z,65.79
2018-08-18T18:28:31.204Z,65.75
2018-08-18T18:31:04.623Z,66.76
2018-08-18T18:33:34.871Z,66.27
2018-08-18T18:36:07.686Z,67.56
2018-08-18T18:38:56.076Z,67.49
2018-08-18T18:41:27.447Z,67.58
2018-08-18T18:44:06.483Z,67.37
2018-08-18T18:46:41.960Z,66.96
2018-08-18T18:49:32.793Z,67.08
2018-08-18T18:52:03.750Z,68.67
2018-08-18T18:54:37.948Z,69.01
2018-08-18T18:57:09.536Z,68.91
2018-08-18T19:00:14.900Z,68.97
2018-08-18T19:02:46.671Z,68.57
2018-08-18T19:08:17.571Z,68.56
2018-08-18T19:10:48.879Z,69.31
2018-08-18T19:13:22.036Z,68.95
2018-08-18T19:15:55.491Z,69.96
2018-08-18T19:18:25.730Z,70.51
2018-08-18T19:20:56.314Z,69.80
2018-08-18T19:23:27.264Z,70.01
2018-08-18T19:26:00.550Z,69.85
2018-08-18T19:28:38.675Z,69.97
2018-08-18T19:31:08.823Z,69.97
2018-08-18T19:33:39.471Z,70.77
2018-08-18T19:36:10.097Z,70.66
2018-08-18T19:38:43.324Z,71.73
2018-08-18T19:41:13.370Z,71.16
2018-08-18T19:43:45.640Z,71.68
2018-08-18T19:46:15.969Z,72.36
2018-08-18T19:48:48.185Z,72.33
2018-08-18T19:51:18.887Z,72.15
2018-08-18T19:53:51.166Z,72.31
2018-08-18T19:56:22.160Z,72.26
2018-08-18T19:58:53.982Z,73.01
2018-08-18T20:01:25.441Z,72.72
2018-08-18T20:04:19.012Z,72.31
2018-08-18T20:06:56.908Z,72.14
2018-08-18T20:09:28.894Z,72.94
2018-08-18T20:12:00.533Z,73.64
2018-08-18T20:14:33.987Z,73.14
2018-08-18T20:17:06.072Z,73.45
2018-08-18T20:19:37.605Z,74.03
2018-08-18T20:22:13.096Z,73.77
2018-08-18T20:24:43.217Z,74.54
2018-08-18T20:27:13.561Z,74.14
2018-08-18T20:29:43.624Z,75.07
2018-08-18T20:32:13.703Z,74.94
2018-08-18T20:34:44.322Z,74.76
2018-08-18T20:37:14.418Z,75.19
2018-08-18T20:39:49.493Z,74.76
2018-08-18T20:42:30.267Z,74.95
2018-08-18T20:45:13.180Z,74.76
2018-08-18T20:47:48.820Z,74.67
2018-08-18T20:50:24.334Z,75.64
2018-08-18T20:56:09.451Z,75.21
2018-08-18T20:58:43.163Z,75.01
2018-08-18T21:01:14.665Z,75.35
2018-08-18T21:03:56.029Z,74.96
2018-08-18T21:06:36.426Z,75.25
2018-08-18T21:09:24.832Z,74.83
2018-08-18T21:14:42.337Z,75.13
2018-08-18T21:17:13.853Z,75.42
2018-08-18T21:19:52.243Z,75.85
2018-08-18T21:25:30.566Z,74.29
2018-08-18T21:28:19.835Z,75.17
2018-08-18T21:30:51.642Z,75.98
2018-08-18T21:33:29.960Z,75.36
2018-08-18T21:36:06.620Z,74.44
2018-08-18T21:38:45.364Z,75.40
2018-08-18T21:41:18.589Z,75.17
2018-08-18T21:43:49.790Z,74.68
2018-08-18T21:46:22.631Z,74.87
2018-08-18T21:48:56.310Z,75.39
2018-08-18T21:51:27.903Z,75.85
2018-08-18T21:54:09.551Z,75.50
2018-08-18T21:57:05.994Z,76.63
2018-08-18T21:59:54.560Z,76.29
2018-08-18T22:02:41.991Z,76.83
2018-08-18T22:05:14.744Z,77.60
2018-08-18T22:07:54.832Z,78.26
2018-08-18T22:10:29.789Z,78.12
2018-08-18T22:13:04.367Z,78.66
2018-08-18T22:18:15.443Z,78.52
2018-08-18T22:20:45.804Z,78.22
2018-08-18T22:23:18.874Z,78.64
2018-08-18T22:25:51.057Z,78.11
2018-08-18T22:28:24.603Z,79.08
2018-08-18T22:30:56.358Z,78.28
2018-08-18T22:33:31.978Z,79.14
2018-08-18T22:36:05.052Z,78.64
2018-08-18T22:38:35.629Z,79.17
2018-08-18T22:41:09.440Z,78.76
2018-08-18T22:43:39.507Z,78.97
2018-08-18T22:46:12.041Z,78.78
2018-08-18T22:49:53.844Z,78.27
2018-08-18T22:52:23.897Z,77.93
2018-08-18T22:54:53.956Z,78.21
2018-08-18T22:57:23.895Z,78.23
2018-08-18T22:59:57.824Z,77.53
2018-08-18T23:02:27.959Z,78.92
2018-08-18T23:05:00.089Z,77.93
2018-08-18T23:07:30.583Z,77.80
2018-08-18T23:10:06.326Z,77.66
2018-08-18T23:12:40.859Z,77.67
2018-08-18T23:15:12.166Z,78.66
2018-08-18T23:17:42.977Z,78.91
2018-08-18T23:20:16.711Z,78.43
2018-08-18T23:22:59.534Z,79.31
2018-08-18T23:25:30.972Z,79.50
2018-08-18T23:28:01.206Z,78.99
2018-08-18T23:30:38.270Z,80.31
2018-08-18T23:33:11.067Z,80.08
2018-08-18T23:35:44.759Z,79.33
2018-08-18T23:38:16.957Z,79.33
2018-08-18T23:40:48.123Z,79.41
2018-08-18T23:43:18.265Z,80.12
2018-08-18T23:45:50.035Z,79.49
2018-08-18T23:48:19.685Z,79.36
2018-08-18T23:50:49.965Z,79.32
2018-08-18T23:53:21.027Z,78.97
2018-08-18T23:55:59.523Z,80.24
2018-08-18T23:58:38.464Z,79.73
